Time;durP1;ratioP1;P1;durP2;ratioP2;P2;SDS_P1;SDS_P2;PMS_P1;PMS_P2;Temp;Humidity;BMP_temperature;BMP_pressure;BME280_temperature;BME280_humidity;BME280_pressure;Samples;Min_cycle;Max_cycle;Signal;HPM_P1;HPM_P2
2021/11/24 00:01:40;;;;;;;7.93;5.87;;;0.50;99.90;;;;;;4992963;28;20227;-58
2021/11/24 00:04:07;;;;;;;10.53;6.70;;;0.50;99.90;;;;;;4993027;28;20223;-58
2021/11/24 00:06:33;;;;;;;10.53;6.30;;;0.50;99.90;;;;;;4992959;28;20218;-59
2021/11/24 00:09:00;;;;;;;9.03;7.00;;;0.50;99.90;;;;;;4993242;28;20220;-58
2021/11/24 00:11:28;;;;;;;8.73;6.17;;;0.50;99.90;;;;;;4993340;28;20589;-59
2021/11/24 00:13:56;;;;;;;9.40;6.23;;;0.50;99.90;;;;;;4992927;28;20207;-58
2021/11/24 00:16:23;;;;;;;14.13;7.43;;;0.50;99.90;;;;;;4992893;28;20311;-58
2021/11/24 00:18:50;;;;;;;13.97;8.57;;;0.40;99.90;;;;;;4992926;28;20204;-59
2021/11/24 00:21:18;;;;;;;14.10;8.33;;;0.50;99.90;;;;;;5019308;23;20301;-60
2021/11/24 00:23:45;;;;;;;14.23;8.70;;;0.40;99.90;;;;;;5012321;28;20214;-59
2021/11/24 00:26:12;;;;;;;17.27;9.37;;;0.40;99.90;;;;;;5012615;28;20342;-59
2021/11/24 00:28:39;;;;;;;10.27;7.03;;;0.50;99.90;;;;;;5012720;28;20211;-60
2021/11/24 00:31:07;;;;;;;9.63;6.90;;;0.50;99.90;;;;;;5012697;28;20218;-60
2021/11/24 00:33:34;;;;;;;9.97;6.47;;;0.50;99.90;;;;;;5012563;28;20239;-61
2021/11/24 00:36:01;;;;;;;11.10;6.10;;;0.40;99.90;;;;;;5012586;28;20221;-60
2021/11/24 00:38:28;;;;;;;10.73;6.80;;;0.40;99.90;;;;;;5012891;28;20230;-60
2021/11/24 00:40:55;;;;;;;11.17;7.43;;;0.40;99.90;;;;;;5011996;28;20283;-60
2021/11/24 00:43:22;;;;;;;11.63;6.83;;;0.30;99.90;;;;;;5012404;28;20371;-61
2021/11/24 00:45:49;;;;;;;8.40;6.70;;;0.10;99.90;;;;;;5012789;28;20702;-60
2021/11/24 00:48:17;;;;;;;11.30;6.30;;;0.00;99.90;;;;;;5012382;28;20237;-60
2021/11/24 00:50:44;;;;;;;11.27;6.37;;;-0.10;99.90;;;;;;5012767;28;20608;-61
2021/11/24 00:53:10;;;;;;;12.33;8.30;;;-0.20;99.90;;;;;;5012630;28;20235;-59
2021/11/24 00:55:37;;;;;;;11.73;6.60;;;-0.20;99.90;;;;;;5012763;28;20592;-60
2021/11/24 00:58:04;;;;;;;13.57;8.67;;;-0.20;99.90;;;;;;5012482;28;20207;-61
2021/11/24 01:00:31;;;;;;;12.27;8.50;;;-0.30;99.90;;;;;;5012634;28;20226;-61
2021/11/24 01:02:58;;;;;;;10.23;7.10;;;-0.30;99.90;;;;;;5012656;28;20249;-61
2021/11/24 01:05:29;;;;;;;12.30;7.33;;;-0.40;99.90;;;;;;5012942;28;20206;-60
2021/11/24 01:07:55;;;;;;;13.77;7.60;;;-0.50;99.90;;;;;;5012504;28;20215;-60
2021/11/24 01:10:22;;;;;;;10.00;7.93;;;-0.60;99.90;;;;;;5012248;28;20233;-60
2021/11/24 01:12:49;;;;;;;12.93;7.37;;;-0.70;99.90;;;;;;5012075;28;20246;-60
2021/11/24 01:15:17;;;;;;;13.60;8.30;;;-0.80;99.90;;;;;;5011880;28;20214;-60
2021/11/24 01:17:44;;;;;;;12.40;7.17;;;-0.70;99.90;;;;;;5012060;28;20317;-60
2021/11/24 01:20:12;;;;;;;13.00;7.33;;;-0.80;99.90;;;;;;5011922;28;20693;-60
2021/11/24 01:22:42;;;;;;;11.83;8.20;;;-0.80;99.90;;;;;;5011854;28;20234;-60
2021/11/24 01:25:09;;;;;;;10.07;7.50;;;-0.90;99.90;;;;;;5012090;28;20583;-60
2021/11/24 01:27:36;;;;;;;14.20;8.10;;;-0.90;99.90;;;;;;5012192;28;20217;-60
2021/11/24 01:30:04;;;;;;;11.57;6.93;;;-1.00;99.90;;;;;;5012211;28;20223;-60
2021/11/24 01:32:31;;;;;;;14.97;7.93;;;-1.00;99.90;;;;;;5011962;28;20231;-60
2021/11/24 01:34:58;;;;;;;10.17;6.93;;;-1.00;99.90;;;;;;5011758;28;20210;-60
2021/11/24 01:37:24;;;;;;;12.53;6.77;;;-1.00;99.90;;;;;;5011827;28;20210;-60
2021/11/24 01:39:52;;;;;;;9.20;6.57;;;-1.00;99.90;;;;;;5011854;28;20578;-60
2021/11/24 01:42:19;;;;;;;9.20;6.27;;;-1.00;99.90;;;;;;5012077;28;20234;-60
2021/11/24 01:44:46;;;;;;;9.70;6.10;;;-1.00;99.90;;;;;;5011541;28;20702;-60
2021/11/24 01:47:13;;;;;;;19.03;10.73;;;-1.00;99.90;;;;;;5011854;28;20695;-60
2021/11/24 01:49:40;;;;;;;14.33;8.13;;;-1.00;99.90;;;;;;5012094;28;20345;-60
2021/11/24 01:52:07;;;;;;;9.00;6.93;;;-1.00;99.90;;;;;;5015272;28;20226;-60
2021/11/24 01:54:34;;;;;;;10.40;6.30;;;-1.00;99.90;;;;;;5015258;28;20210;-60
2021/11/24 01:57:03;;;;;;;7.73;5.90;;;-1.00;99.90;;;;;;5015484;28;20222;-59
2021/11/24 01:59:30;;;;;;;7.60;5.73;;;-1.10;99.90;;;;;;5015393;28;20230;-60
2021/11/24 02:01:58;;;;;;;9.67;6.03;;;-1.10;99.90;;;;;;5015243;28;20234;-60
2021/11/24 02:04:25;;;;;;;10.07;6.13;;;-1.10;99.90;;;;;;5015099;28;20211;-59
2021/11/24 02:06:53;;;;;;;8.83;6.20;;;-1.10;99.90;;;;;;5015114;28;20246;-59
2021/11/24 02:09:21;;;;;;;7.20;5.77;;;-1.10;99.90;;;;;;5014812;28;20698;-59
2021/11/24 02:11:48;;;;;;;7.87;5.57;;;-1.10;99.90;;;;;;5015027;28;20768;-59
2021/11/24 02:14:17;;;;;;;10.60;6.13;;;-1.10;99.90;;;;;;5014650;28;20207;-59
2021/11/24 02:16:46;;;;;;;10.07;6.47;;;-1.10;99.90;;;;;;5014907;28;20210;-59
2021/11/24 02:19:13;;;;;;;8.43;5.77;;;-1.10;99.90;;;;;;5014923;28;20210;-59
2021/11/24 02:21:45;;;;;;;12.10;6.27;;;-1.10;99.90;;;;;;5014536;28;20247;-59
2021/11/24 02:24:12;;;;;;;7.77;5.93;;;-1.00;99.90;;;;;;5014920;28;20231;-60
2021/11/24 02:26:38;;;;;;;9.97;5.87;;;-1.00;99.90;;;;;;5014887;28;20211;-60
2021/11/24 02:29:05;;;;;;;10.33;6.00;;;-1.00;99.90;;;;;;5014846;28;20694;-60
2021/11/24 02:31:32;;;;;;;9.97;6.07;;;-1.00;99.90;;;;;;5014454;28;20242;-60
2021/11/24 02:33:59;;;;;;;9.97;6.07;;;-0.90;99.90;;;;;;5014283;28;20670;-60
2021/11/24 02:36:27;;;;;;;8.00;5.77;;;-0.90;99.90;;;;;;5014311;28;20210;-60
2021/11/24 02:38:55;;;;;;;8.00;5.90;;;-1.00;99.90;;;;;;5014709;28;20214;-60
2021/11/24 02:41:22;;;;;;;10.17;6.13;;;-0.90;99.90;;;;;;5014459;28;20281;-60
2021/11/24 02:43:49;;;;;;;8.43;6.30;;;-1.00;99.90;;;;;;5014199;28;20701;-60
2021/11/24 02:46:15;;;;;;;10.63;6.10;;;-1.00;99.90;;;;;;5014436;28;20207;-60
2021/11/24 02:48:42;;;;;;;10.03;6.23;;;-1.00;99.90;;;;;;5014927;28;20207;-60
2021/11/24 02:51:09;;;;;;;8.40;5.87;;;-1.00;99.90;;;;;;5016319;28;20253;-60
2021/11/24 02:53:37;;;;;;;10.07;6.13;;;-1.00;99.90;;;;;;5018505;28;20207;-59
2021/11/24 02:56:06;;;;;;;12.73;6.40;;;-0.90;99.90;;;;;;5014712;28;20265;-59
2021/11/24 02:58:33;;;;;;;10.17;5.97;;;-1.00;99.90;;;;;;5014582;28;20207;-60
2021/11/24 03:01:02;;;;;;;8.80;6.57;;;-1.00;99.90;;;;;;5014215;28;20207;-60
2021/11/24 03:03:29;;;;;;;10.10;6.10;;;-0.90;99.90;;;;;;5013134;28;20617;-60
2021/11/24 03:05:56;;;;;;;8.40;6.50;;;-0.90;99.90;;;;;;5014349;28;20209;-60
2021/11/24 03:08:23;;;;;;;8.97;5.60;;;-1.00;99.90;;;;;;5014173;28;20233;-60
2021/11/24 03:10:50;;;;;;;7.87;5.30;;;-1.00;99.90;;;;;;5014026;28;20227;-60
2021/11/24 03:13:18;;;;;;;9.40;5.63;;;-1.00;99.90;;;;;;5013955;28;20257;-60
2021/11/24 03:15:44;;;;;;;9.50;6.13;;;-1.00;99.90;;;;;;5014326;28;20207;-60
2021/11/24 03:18:11;;;;;;;9.37;5.97;;;-1.00;99.90;;;;;;5014367;28;20207;-60
2021/11/24 03:20:38;;;;;;;9.30;6.23;;;-1.00;99.90;;;;;;5014230;28;20237;-60
2021/11/24 03:23:07;;;;;;;9.97;5.87;;;-1.10;99.90;;;;;;5013765;28;20245;-60
2021/11/24 03:25:33;;;;;;;8.43;5.90;;;-1.20;99.90;;;;;;5013857;28;20233;-60
2021/11/24 03:28:00;;;;;;;9.47;5.87;;;-1.30;99.90;;;;;;5013594;28;20211;-60
2021/11/24 03:30:30;;;;;;;9.87;6.20;;;-1.40;99.90;;;;;;5013574;28;20231;-60
2021/11/24 03:32:59;;;;;;;10.43;6.47;;;-1.40;99.90;;;;;;5013771;28;20239;-60
2021/11/24 03:35:26;;;;;;;8.47;6.03;;;-1.40;99.90;;;;;;5013297;28;20209;-60
2021/11/24 03:37:54;;;;;;;9.27;6.20;;;-1.40;99.90;;;;;;5013457;28;20211;-60
2021/11/24 03:40:23;;;;;;;9.33;6.23;;;-1.30;99.90;;;;;;5013450;28;20199;-60
2021/11/24 03:42:50;;;;;;;9.60;5.63;;;-1.30;99.90;;;;;;5013206;28;20230;-60
2021/11/24 03:45:20;;;;;;;9.57;5.50;;;-1.30;99.90;;;;;;5013020;28;20217;-59
2021/11/24 03:47:49;;;;;;;9.83;6.17;;;-1.40;99.90;;;;;;5013465;28;20298;-59
2021/11/24 03:50:16;;;;;;;8.10;5.50;;;-1.40;99.90;;;;;;5013248;28;20227;-59
2021/11/24 03:52:44;;;;;;;9.33;6.37;;;-1.50;99.90;;;;;;5013076;28;20234;-59
2021/11/24 03:55:12;;;;;;;10.07;6.17;;;-1.50;99.90;;;;;;5012800;28;20686;-59
2021/11/24 03:57:39;;;;;;;10.80;5.50;;;-1.50;99.90;;;;;;5012870;28;20233;-59
2021/11/24 04:00:08;;;;;;;8.77;6.00;;;-1.50;99.90;;;;;;5013059;28;20261;-59
2021/11/24 04:02:35;;;;;;;9.33;5.47;;;-1.50;99.90;;;;;;5013127;28;20226;-59
2021/11/24 04:05:03;;;;;;;8.37;6.13;;;-1.60;99.90;;;;;;5013037;28;20211;-59
2021/11/24 04:07:30;;;;;;;8.30;6.03;;;-1.60;99.90;;;;;;5012812;28;20203;-59
2021/11/24 04:09:56;;;;;;;8.70;5.93;;;-1.60;99.90;;;;;;5012701;28;20210;-59
2021/11/24 04:12:23;;;;;;;13.10;5.83;;;-1.60;99.90;;;;;;5012689;28;20231;-59
2021/11/24 04:14:50;;;;;;;9.80;6.43;;;-1.60;99.90;;;;;;5011866;28;20237;-59
2021/11/24 04:17:16;;;;;;;9.20;6.00;;;-1.60;99.90;;;;;;5012685;28;20211;-59
2021/11/24 04:19:43;;;;;;;10.27;6.13;;;-1.60;99.90;;;;;;5012713;28;20207;-59
2021/11/24 04:22:11;;;;;;;10.47;6.27;;;-1.60;99.90;;;;;;5012434;28;20769;-59
2021/11/24 04:24:39;;;;;;;8.13;5.70;;;-1.70;99.90;;;;;;5012362;28;20211;-59
2021/11/24 04:27:06;;;;;;;9.27;5.90;;;-1.70;99.90;;;;;;5012721;28;20202;-59
2021/11/24 04:29:32;;;;;;;10.00;6.50;;;-1.70;99.90;;;;;;5012500;28;20682;-59
2021/11/24 04:31:59;;;;;;;9.40;6.50;;;-1.70;99.90;;;;;;5012523;28;20235;-60
2021/11/24 04:34:26;;;;;;;9.83;6.70;;;-1.70;99.90;;;;;;5012447;28;20214;-60
2021/11/24 04:36:52;;;;;;;10.03;7.03;;;-1.70;99.90;;;;;;5012450;28;20211;-60
2021/11/24 04:39:20;;;;;;;13.00;7.17;;;-1.70;99.90;;;;;;5012366;28;20266;-60
2021/11/24 04:41:47;;;;;;;6.97;6.07;;;-1.80;99.90;;;;;;5012542;28;20229;-60
2021/11/24 04:44:14;;;;;;;9.13;6.37;;;-1.70;99.90;;;;;;5012586;28;20203;-60
2021/11/24 04:46:41;;;;;;;10.50;6.30;;;-1.70;99.90;;;;;;5012425;28;20671;-60
2021/11/24 04:49:07;;;;;;;11.63;6.93;;;-1.70;99.90;;;;;;5012538;28;20203;-60
2021/11/24 04:51:34;;;;;;;10.80;6.13;;;-1.60;99.90;;;;;;5012245;28;20235;-60
2021/11/24 04:54:01;;;;;;;9.30;5.83;;;-1.60;99.90;;;;;;5012180;28;20229;-60
2021/11/24 04:56:29;;;;;;;10.67;6.70;;;-1.50;99.90;;;;;;5012276;28;20207;-60
2021/11/24 04:58:57;;;;;;;11.43;7.27;;;-1.60;99.90;;;;;;5012396;28;20257;-60
2021/11/24 05:01:24;;;;;;;9.60;6.43;;;-1.50;99.90;;;;;;5012011;28;20769;-60
2021/11/24 05:03:51;;;;;;;12.53;8.10;;;-1.50;99.90;;;;;;5011979;28;20202;-60
2021/11/24 05:06:20;;;;;;;10.13;7.37;;;-1.30;99.90;;;;;;5012009;28;20222;-60
2021/11/24 05:08:47;;;;;;;11.53;7.60;;;-1.40;99.90;;;;;;5012388;28;20211;-60
2021/11/24 05:11:15;;;;;;;14.20;7.93;;;-1.40;99.90;;;;;;5012185;28;20313;-60
2021/11/24 05:13:49;;;;;;;9.70;6.47;;;-1.30;99.90;;;;;;5012197;28;20210;-60
2021/11/24 05:16:16;;;;;;;9.80;6.40;;;-1.10;99.90;;;;;;5012090;28;20265;-60
2021/11/24 05:18:46;;;;;;;11.47;6.60;;;-1.00;99.90;;;;;;5012530;28;20206;-60
2021/11/24 05:21:15;;;;;;;9.43;7.17;;;-0.90;99.90;;;;;;5011939;28;20211;-60
2021/11/24 05:23:43;;;;;;;10.70;6.93;;;-1.00;99.90;;;;;;5012021;28;20211;-60
2021/11/24 05:26:11;;;;;;;10.87;7.43;;;-0.90;99.90;;;;;;5013507;28;20210;-61
2021/11/24 05:28:38;;;;;;;12.63;7.07;;;-0.80;99.90;;;;;;5015572;28;20234;-60
2021/11/24 05:31:07;;;;;;;10.30;7.67;;;-0.70;99.90;;;;;;5015584;28;20226;-60
2021/11/24 05:33:35;;;;;;;10.33;7.30;;;-0.50;99.90;;;;;;5015709;28;20214;-60
2021/11/24 05:36:03;;;;;;;9.70;7.40;;;-0.50;99.90;;;;;;5015592;28;20307;-60
2021/11/24 05:38:29;;;;;;;11.57;7.67;;;-0.40;99.90;;;;;;5015770;28;20222;-61
2021/11/24 05:40:56;;;;;;;10.83;7.43;;;-0.40;99.90;;;;;;5015725;28;20213;-60
2021/11/24 05:43:26;;;;;;;11.13;7.83;;;-0.30;99.90;;;;;;5015722;28;20214;-61
2021/11/24 05:46:10;;;;;;;13.23;8.30;;;-0.30;99.90;;;;;;5015300;28;20305;-61
2021/11/24 05:48:39;;;;;;;10.67;7.87;;;-0.20;99.90;;;;;;5015769;28;20586;-60
2021/11/24 05:51:07;;;;;;;11.20;7.67;;;-0.20;99.90;;;;;;5015199;28;20229;-60
2021/11/24 05:53:34;;;;;;;13.83;8.00;;;-0.20;99.90;;;;;;5015433;28;20269;-60
2021/11/24 05:56:01;;;;;;;15.70;8.20;;;-0.10;99.90;;;;;;5015059;28;20214;-60
2021/11/24 05:58:28;;;;;;;12.67;7.70;;;-0.10;99.90;;;;;;5015091;28;20246;-60
2021/11/24 06:00:55;;;;;;;12.97;7.97;;;0.00;99.90;;;;;;5014983;28;20688;-61
2021/11/24 06:03:22;;;;;;;11.63;7.33;;;0.00;99.90;;;;;;5015389;28;20211;-60
2021/11/24 06:05:50;;;;;;;13.27;7.97;;;0.20;99.90;;;;;;5014903;28;20241;-60
2021/11/24 06:08:17;;;;;;;12.47;8.40;;;0.20;99.90;;;;;;5015027;28;20203;-60
2021/11/24 06:10:44;;;;;;;14.43;8.47;;;0.30;99.90;;;;;;5014855;28;20226;-61
2021/11/24 06:13:11;;;;;;;17.20;9.03;;;0.30;99.90;;;;;;5014783;28;20453;-61
2021/11/24 06:15:38;;;;;;;14.93;9.47;;;0.30;99.90;;;;;;5014629;28;20556;-60
2021/11/24 06:18:06;;;;;;;14.60;8.73;;;0.30;99.90;;;;;;5015056;28;20248;-60
2021/11/24 06:20:33;;;;;;;16.00;9.83;;;0.30;99.90;;;;;;5015077;28;20207;-61
2021/11/24 06:23:01;;;;;;;15.07;9.43;;;0.40;99.90;;;;;;5015002;28;20341;-61
2021/11/24 06:25:28;;;;;;;16.03;9.83;;;0.30;99.90;;;;;;5014613;28;20585;-60
2021/11/24 06:27:55;;;;;;;17.37;9.63;;;0.30;99.90;;;;;;5014831;28;20215;-60
2021/11/24 06:30:21;;;;;;;13.93;8.60;;;0.40;99.90;;;;;;5014834;28;20211;-60
2021/11/24 06:32:48;;;;;;;16.87;9.20;;;0.40;99.90;;;;;;5014629;28;20231;-60
2021/11/24 06:35:15;;;;;;;13.87;10.17;;;0.40;99.90;;;;;;5014589;28;20632;-60
2021/11/24 06:37:42;;;;;;;15.43;9.60;;;0.30;99.90;;;;;;5013389;28;20203;-60
2021/11/24 06:40:11;;;;;;;14.47;9.67;;;0.30;99.90;;;;;;5014345;28;20576;-60
2021/11/24 06:42:38;;;;;;;13.70;9.77;;;0.30;99.90;;;;;;5015036;28;20219;-60
2021/11/24 06:45:06;;;;;;;14.50;9.27;;;0.40;99.90;;;;;;5014832;28;20218;-61
2021/11/24 06:47:33;;;;;;;12.50;9.70;;;0.40;99.90;;;;;;5014442;28;20207;-60
2021/11/24 06:50:00;;;;;;;14.63;10.13;;;0.30;99.90;;;;;;5014153;28;20248;-60
2021/11/24 06:52:26;;;;;;;14.90;11.23;;;0.40;99.90;;;;;;5014175;28;20262;-61
2021/11/24 06:54:53;;;;;;;17.63;10.70;;;0.50;99.90;;;;;;5014088;28;20218;-60
2021/11/24 06:57:21;;;;;;;14.00;10.00;;;0.50;99.90;;;;;;5014323;28;20237;-60
2021/11/24 06:59:48;;;;;;;14.73;10.03;;;0.60;99.90;;;;;;5013977;28;20214;-60
2021/11/24 07:02:15;;;;;;;14.97;11.00;;;0.70;99.90;;;;;;5014025;28;20769;-60
2021/11/24 07:04:41;;;;;;;19.40;12.60;;;0.90;99.90;;;;;;5014085;28;20213;-60
2021/11/24 07:07:08;;;;;;;15.73;11.13;;;1.10;99.90;;;;;;5014211;28;20210;-60
2021/11/24 07:09:35;;;;;;;17.17;10.93;;;1.20;99.90;;;;;;5014203;28;20214;-60
2021/11/24 07:12:02;;;;;;;18.50;11.17;;;1.20;99.90;;;;;;5013938;28;20231;-60
2021/11/24 07:14:30;;;;;;;18.03;12.33;;;1.30;99.90;;;;;;5013614;28;20687;-60
2021/11/24 07:16:58;;;;;;;19.73;12.50;;;1.40;99.90;;;;;;5013683;28;20211;-61
2021/11/24 07:19:25;;;;;;;16.90;10.80;;;1.60;99.90;;;;;;5013759;28;20301;-60
2021/11/24 07:21:52;;;;;;;18.73;11.30;;;1.90;99.90;;;;;;5013448;28;20235;-60
2021/11/24 07:24:21;;;;;;;20.23;12.03;;;2.10;99.90;;;;;;5013736;28;20210;-60
2021/11/24 07:26:49;;;;;;;21.57;11.90;;;2.30;99.90;;;;;;5013631;28;20211;-60
2021/11/24 07:29:16;;;;;;;19.20;11.93;;;2.60;99.90;;;;;;5013601;28;20214;-60
2021/11/24 07:31:44;;;;;;;21.70;12.30;;;2.80;99.90;;;;;;5013484;28;20237;-60
2021/11/24 07:34:12;;;;;;;19.07;11.30;;;2.90;99.90;;;;;;5013159;28;20238;-60
2021/11/24 07:36:39;;;;;;;16.30;11.07;;;3.10;99.90;;;;;;5013531;28;20211;-61
2021/11/24 07:39:06;;;;;;;22.20;13.63;;;3.20;99.90;;;;;;5013389;28;20667;-60
2021/11/24 07:41:33;;;;;;;21.87;13.60;;;3.40;99.90;;;;;;5013294;28;20243;-60
2021/11/24 07:44:00;;;;;;;18.53;12.37;;;3.50;99.90;;;;;;5013234;28;20214;-60
2021/11/24 07:46:26;;;;;;;17.07;11.60;;;3.60;99.90;;;;;;5013113;28;20214;-60
2021/11/24 07:48:55;;;;;;;21.40;11.77;;;3.70;99.90;;;;;;5012911;28;20207;-60
2021/11/24 07:51:22;;;;;;;25.00;13.47;;;3.80;99.90;;;;;;5013336;28;20231;-60
2021/11/24 07:53:48;;;;;;;22.60;12.43;;;3.80;99.90;;;;;;5013332;28;20207;-60
2021/11/24 07:56:15;;;;;;;17.80;11.20;;;3.80;99.90;;;;;;5012962;28;20210;-60
2021/11/24 07:58:42;;;;;;;18.87;11.83;;;4.00;99.90;;;;;;5013027;28;20207;-60
2021/11/24 08:01:10;;;;;;;16.23;12.00;;;4.20;99.90;;;;;;5012898;28;20607;-60
2021/11/24 08:03:36;;;;;;;18.03;12.70;;;4.40;99.90;;;;;;5012940;28;20207;-60
2021/11/24 08:06:05;;;;;;;18.43;12.97;;;4.50;99.90;;;;;;5013007;28;20207;-60
2021/11/24 08:08:32;;;;;;;23.97;14.17;;;4.60;99.90;;;;;;5013501;28;20272;-60
2021/11/24 08:10:59;;;;;;;23.47;14.80;;;4.70;99.90;;;;;;5013083;28;20234;-60
2021/11/24 08:13:26;;;;;;;16.83;11.47;;;4.80;99.90;;;;;;5012748;28;20718;-60
2021/11/24 08:15:53;;;;;;;19.10;12.37;;;4.90;99.90;;;;;;5012598;28;20214;-60
2021/11/24 08:18:20;;;;;;;18.50;11.60;;;5.10;99.90;;;;;;5012794;28;20210;-60
2021/11/24 08:20:48;;;;;;;15.53;10.67;;;5.30;99.90;;;;;;5012926;28;20265;-60
2021/11/24 08:23:16;;;;;;;18.63;10.77;;;5.50;99.90;;;;;;5012530;28;20321;-59
2021/11/24 08:25:43;;;;;;;16.70;11.20;;;5.60;99.90;;;;;;5012366;28;20210;-61
2021/11/24 08:28:09;;;;;;;17.17;10.63;;;5.70;99.90;;;;;;5014320;28;20210;-60
2021/11/24 08:30:37;;;;;;;15.57;10.43;;;5.80;99.90;;;;;;5013587;28;20241;-60
2021/11/24 08:33:03;;;;;;;15.43;10.53;;;5.90;99.90;;;;;;5012669;28;20235;-60
2021/11/24 08:35:30;;;;;;;14.10;9.97;;;6.00;99.90;;;;;;5012613;28;20269;-60
2021/11/24 08:37:57;;;;;;;14.20;10.17;;;6.20;99.90;;;;;;5012524;28;20241;-60
2021/11/24 08:40:25;;;;;;;15.70;10.60;;;6.20;99.90;;;;;;5012576;28;20214;-60
2021/11/24 08:42:52;;;;;;;14.03;9.97;;;6.10;99.90;;;;;;5012457;28;20226;-60
2021/11/24 08:45:19;;;;;;;12.10;10.03;;;6.10;99.90;;;;;;5012262;28;20210;-60
2021/11/24 08:47:45;;;;;;;13.47;9.90;;;6.10;99.90;;;;;;5013010;28;20207;-60
2021/11/24 08:50:14;;;;;;;14.30;10.63;;;6.10;99.90;;;;;;5012500;28;20293;-60
2021/11/24 08:52:41;;;;;;;11.90;9.53;;;6.20;99.90;;;;;;5012315;28;20239;-60
2021/11/24 08:55:10;;;;;;;15.17;10.53;;;6.30;99.90;;;;;;5012254;28;20210;-61
2021/11/24 08:57:38;;;;;;;14.63;10.33;;;6.40;99.90;;;;;;5012389;28;20641;-60
2021/11/24 09:00:06;;;;;;;13.00;9.53;;;6.50;99.90;;;;;;5012535;28;20643;-60
2021/11/24 09:02:33;;;;;;;13.70;9.57;;;6.40;99.90;;;;;;5016306;28;20227;-59
2021/11/24 09:05:00;;;;;;;13.30;10.13;;;6.30;99.90;;;;;;5016325;28;20211;-60
2021/11/24 09:07:26;;;;;;;13.60;9.83;;;6.30;99.90;;;;;;5016212;28;20207;-60
2021/11/24 09:09:53;;;;;;;12.60;9.47;;;6.20;99.90;;;;;;5016306;28;20277;-59
2021/11/24 09:12:20;;;;;;;12.37;9.93;;;6.10;99.90;;;;;;5015890;28;20284;-60
2021/11/24 09:14:48;;;;;;;12.50;9.30;;;6.10;99.90;;;;;;5016417;28;20218;-61
2021/11/24 09:17:14;;;;;;;12.80;9.80;;;6.00;99.90;;;;;;5016096;28;20218;-61
2021/11/24 09:19:41;;;;;;;12.17;9.57;;;5.90;99.90;;;;;;5016188;28;20214;-61
2021/11/24 09:22:08;;;;;;;16.33;11.03;;;5.80;99.90;;;;;;5015933;28;20238;-60
2021/11/24 09:24:35;;;;;;;14.00;10.27;;;5.60;99.90;;;;;;5015573;28;20213;-60
2021/11/24 09:27:04;;;;;;;13.77;11.13;;;5.70;99.90;;;;;;5016156;28;20791;-61
2021/11/24 09:29:30;;;;;;;12.70;9.77;;;5.90;99.90;;;;;;5016024;28;20293;-61
2021/11/24 09:32:03;;;;;;;14.60;10.63;;;6.10;99.90;;;;;;5015549;28;20223;-61
2021/11/24 09:34:31;;;;;;;14.10;10.30;;;6.20;99.90;;;;;;5015593;28;20242;-60
2021/11/24 09:36:58;;;;;;;14.03;9.63;;;6.30;99.90;;;;;;5015507;28;20235;-61
2021/11/24 09:39:25;;;;;;;13.23;9.37;;;6.40;99.90;;;;;;5015617;28;20207;-60
2021/11/24 09:41:56;;;;;;;13.67;9.07;;;6.40;99.90;;;;;;5015990;28;20227;-59
2021/11/24 09:44:23;;;;;;;11.07;8.77;;;6.50;99.90;;;;;;5015795;28;20302;-60
2021/11/24 09:46:52;;;;;;;13.73;8.57;;;6.50;99.90;;;;;;5015652;28;20211;-60
2021/11/24 09:49:20;;;;;;;11.47;9.43;;;6.40;99.90;;;;;;5015779;28;20239;-60
2021/11/24 09:51:49;;;;;;;13.07;10.20;;;6.40;99.90;;;;;;5015946;28;20322;-60
2021/11/24 09:54:16;;;;;;;14.17;9.80;;;6.50;99.90;;;;;;5015438;28;20265;-60
2021/11/24 09:56:45;;;;;;;11.60;9.70;;;6.70;99.90;;;;;;5015459;28;20203;-60
2021/11/24 09:59:13;;;;;;;12.27;10.37;;;6.90;99.90;;;;;;5015299;28;20207;-60
2021/11/24 10:01:41;;;;;;;11.93;8.93;;;7.00;99.90;;;;;;5015179;28;20234;-60
2021/11/24 10:04:08;;;;;;;12.37;9.67;;;7.20;99.90;;;;;;5014962;28;20210;-60
2021/11/24 10:06:39;;;;;;;13.67;9.20;;;7.30;99.90;;;;;;5015036;28;20210;-60
2021/11/24 10:09:06;;;;;;;11.90;9.20;;;7.40;99.90;;;;;;5015278;28;20217;-61
2021/11/24 10:11:33;;;;;;;12.87;10.03;;;7.40;99.90;;;;;;5014819;28;20226;-60
2021/11/24 10:14:00;;;;;;;10.83;8.33;;;7.40;99.90;;;;;;5014878;28;20233;-60
2021/11/24 10:16:28;;;;;;;12.13;8.37;;;7.30;99.90;;;;;;5015055;28;20550;-59
2021/11/24 10:19:01;;;;;;;10.70;8.40;;;7.10;99.90;;;;;;5014679;28;20265;-61
2021/11/24 10:21:29;;;;;;;10.63;8.60;;;6.90;99.90;;;;;;5014793;28;20246;-61
2021/11/24 10:23:59;;;;;;;12.10;9.03;;;6.80;99.90;;;;;;5014779;28;20253;-61
2021/11/24 10:26:29;;;;;;;13.10;10.07;;;6.70;99.90;;;;;;5014390;28;20211;-60
2021/11/24 10:28:58;;;;;;;11.10;8.73;;;6.60;99.90;;;;;;5014731;28;20245;-60
2021/11/24 10:31:35;;;;;;;10.60;8.67;;;6.60;99.90;;;;;;5016321;28;20227;-61
2021/11/24 10:34:10;;;;;;;11.20;9.63;;;6.50;99.90;;;;;;5016779;28;20706;-60
2021/11/24 10:36:53;;;;;;;10.53;8.73;;;6.30;99.90;;;;;;5015938;28;20241;-60
2021/11/24 10:39:23;;;;;;;13.07;9.43;;;6.30;99.90;;;;;;5015227;28;20225;-60
2021/11/24 10:41:50;;;;;;;11.70;9.70;;;6.20;99.90;;;;;;5014426;28;20322;-60
2021/11/24 10:44:26;;;;;;;10.70;8.83;;;6.20;99.90;;;;;;5017824;28;20268;-60
2021/11/24 10:46:54;;;;;;;10.37;8.17;;;6.30;99.90;;;;;;5014476;28;20241;-61
2021/11/24 10:49:29;;;;;;;10.40;8.10;;;6.20;99.90;;;;;;5014428;28;20744;-60
2021/11/24 10:51:56;;;;;;;9.30;8.40;;;5.90;99.90;;;;;;5014580;28;20226;-60
2021/11/24 10:54:24;;;;;;;12.10;8.77;;;5.90;99.90;;;;;;5013887;28;20623;-61
2021/11/24 10:57:07;;;;;;;9.87;8.77;;;6.00;99.90;;;;;;5014516;28;20281;-61
2021/11/24 10:59:36;;;;;;;10.03;8.63;;;6.00;99.90;;;;;;5014394;28;20301;-61
2021/11/24 11:02:17;;;;;;;9.30;8.30;;;6.10;99.90;;;;;;5014399;28;20230;-61
2021/11/24 11:05:08;;;;;;;9.67;8.00;;;6.00;99.90;;;;;;5013920;28;20675;-62
2021/11/24 11:07:37;;;;;;;11.67;8.57;;;6.00;99.90;;;;;;5014234;28;20203;-60
2021/11/24 11:10:14;;;;;;;10.20;8.03;;;6.00;99.90;;;;;;5014031;28;20679;-61
2021/11/24 11:12:43;;;;;;;10.53;8.03;;;6.10;99.90;;;;;;5014565;28;20626;-60
2021/11/24 11:15:29;;;;;;;11.93;8.83;;;6.10;99.90;;;;;;5013908;28;20211;-60
2021/11/24 11:18:00;;;;;;;10.67;8.30;;;6.20;99.90;;;;;;5014249;28;20870;-61
2021/11/24 11:20:30;;;;;;;9.27;8.10;;;6.30;99.90;;;;;;5014034;28;20214;-61
2021/11/24 11:23:11;;;;;;;9.30;7.77;;;6.50;99.90;;;;;;5013751;28;20231;-61
2021/11/24 11:25:42;;;;;;;11.03;8.40;;;6.70;99.90;;;;;;5013416;28;20218;-61
2021/11/24 11:28:10;;;;;;;9.07;7.50;;;6.80;99.90;;;;;;5013796;28;20214;-60
2021/11/24 11:30:39;;;;;;;10.10;8.67;;;7.00;99.90;;;;;;5013692;28;20687;-61
2021/11/24 11:33:06;;;;;;;9.73;8.00;;;6.90;99.90;;;;;;5013395;28;20330;-61
2021/11/24 11:35:33;;;;;;;13.10;10.17;;;7.10;99.90;;;;;;5013141;28;20211;-62
2021/11/24 11:38:00;;;;;;;10.40;7.83;;;7.20;99.90;;;;;;5013989;28;20210;-61
2021/11/24 11:40:27;;;;;;;9.00;7.93;;;7.40;99.90;;;;;;5013527;28;20690;-61
2021/11/24 11:42:58;;;;;;;10.27;8.27;;;7.50;99.90;;;;;;5013802;28;20254;-61
2021/11/24 11:45:31;;;;;;;10.63;7.87;;;7.60;99.90;;;;;;5013548;28;20211;-59
2021/11/24 11:47:59;;;;;;;9.43;7.97;;;7.70;99.90;;;;;;5013666;28;20242;-61
2021/11/24 11:50:54;;;;;;;10.47;7.10;;;7.80;99.90;;;;;;5013529;28;20211;-61
2021/11/24 11:53:23;;;;;;;8.67;7.10;;;7.80;99.90;;;;;;5013550;28;20227;-60
2021/11/24 11:56:14;;;;;;;9.67;7.63;;;7.80;99.90;;;;;;5013277;28;20261;-60
2021/11/24 11:58:58;;;;;;;7.93;7.13;;;8.00;99.90;;;;;;5013467;28;20215;-61
2021/11/24 12:01:27;;;;;;;8.93;7.17;;;8.00;99.90;;;;;;5010505;28;20227;-61
2021/11/24 12:03:57;;;;;;;8.43;7.00;;;8.10;99.90;;;;;;5013688;28;20203;-61
2021/11/24 12:06:26;;;;;;;9.03;6.87;;;8.00;99.90;;;;;;5013698;28;20207;-61
2021/11/24 12:09:14;;;;;;;10.03;7.57;;;7.90;99.90;;;;;;5013940;28;20207;-64
2021/11/24 12:12:07;;;;;;;9.23;7.23;;;8.10;99.90;;;;;;5014973;28;20231;-63
2021/11/24 12:14:50;;;;;;;8.77;7.30;;;8.20;99.90;;;;;;5013797;28;20238;-61
2021/11/24 12:17:37;;;;;;;9.80;7.10;;;8.30;99.90;;;;;;5009300;28;20207;-61
2021/11/24 12:20:46;;;;;;;8.83;7.47;;;8.50;99.90;;;;;;4994516;28;20747;-64
2021/11/24 12:23:15;;;;;;;7.60;6.67;;;8.60;99.90;;;;;;5027037;23;20231;-61
2021/11/24 12:25:44;;;;;;;8.33;7.40;;;8.60;99.90;;;;;;5010046;28;20569;-56
2021/11/24 12:28:13;;;;;;;9.13;7.53;;;8.70;99.90;;;;;;5011985;28;20209;-58
2021/11/24 12:31:04;;;;;;;8.17;7.07;;;8.80;99.90;;;;;;5012523;28;20214;-57
2021/11/24 12:33:33;;;;;;;8.60;7.70;;;8.80;99.90;;;;;;5011732;28;20222;-59
2021/11/24 12:36:04;;;;;;;8.10;6.87;;;8.80;99.90;;;;;;5011157;28;20207;-57
2021/11/24 12:38:32;;;;;;;9.73;7.40;;;8.90;99.90;;;;;;5011890;28;20211;-62
2021/11/24 12:41:01;;;;;;;8.53;7.50;;;9.00;99.90;;;;;;5012917;28;20233;-57
2021/11/24 12:43:31;;;;;;;9.43;7.80;;;9.00;99.90;;;;;;5012285;28;20297;-58
2021/11/24 12:46:10;;;;;;;8.10;7.20;;;9.10;99.90;;;;;;5011950;28;20590;-57
2021/11/24 12:48:43;;;;;;;8.53;7.63;;;9.10;99.90;;;;;;5012142;28;20206;-58
2021/11/24 12:51:11;;;;;;;10.60;7.40;;;9.10;99.90;;;;;;5012772;28;20215;-59